createdAt,value
2022-08-18T00:02:29.982Z,16.60
2022-08-18T00:04:58.470Z,16.70
2022-08-18T00:07:31.157Z,16.70
2022-08-18T00:10:00.505Z,16.60
2022-08-18T00:12:40.193Z,16.60
2022-08-18T00:15:11.987Z,16.60
2022-08-18T00:17:40.695Z,16.70
2022-08-18T00:20:12.060Z,16.70
2022-08-18T00:22:45.384Z,16.70
2022-08-18T00:25:23.180Z,16.70
2022-08-18T00:27:51.081Z,16.60
2022-08-18T00:30:21.294Z,16.60
2022-08-18T00:32:52.596Z,16.60
2022-08-18T00:35:33.145Z,16.50
2022-08-18T00:38:03.425Z,16.50
2022-08-18T00:40:38.091Z,16.30
2022-08-18T00:43:12.829Z,16.30
2022-08-18T00:45:43.280Z,16.40
2022-08-18T00:48:12.532Z,16.40
2022-08-18T00:50:49.426Z,16.50
2022-08-18T00:53:42.183Z,16.40
2022-08-18T00:56:18.467Z,16.40
2022-08-18T00:58:56.209Z,16.50
2022-08-18T01:01:26.898Z,16.50
2022-08-18T01:04:00.719Z,16.50
2022-08-18T01:06:46.969Z,16.50
2022-08-18T01:09:17.630Z,16.40
2022-08-18T01:11:45.818Z,16.40
2022-08-18T01:14:18.471Z,16.40
2022-08-18T01:17:07.307Z,16.30
2022-08-18T01:19:54.982Z,16.40
2022-08-18T01:22:22.885Z,16.40
2022-08-18T01:25:10.699Z,16.30
2022-08-18T01:27:39.409Z,16.30
2022-08-18T01:30:11.012Z,16.30
2022-08-18T01:32:41.740Z,16.20
2022-08-18T01:35:11.859Z,16.20
2022-08-18T01:37:41.545Z,16.10
2022-08-18T01:41:22.510Z,16.10
2022-08-18T01:43:04.431Z,16.00
2022-08-18T01:45:35.449Z,16.10
2022-08-18T01:48:04.993Z,16.10
2022-08-18T01:50:36.299Z,16.00
2022-08-18T01:53:07.678Z,16.00
2022-08-18T01:55:37.394Z,16.10
2022-08-18T01:58:08.016Z,15.90
2022-08-18T02:00:36.763Z,15.90
2022-08-18T02:03:08.617Z,15.80
2022-08-18T02:05:50.613Z,15.70
2022-08-18T02:08:18.733Z,15.80
2022-08-18T02:10:46.866Z,15.70
2022-08-18T02:13:21.220Z,15.70
2022-08-18T02:15:48.923Z,15.70
2022-08-18T02:18:46.884Z,15.70
2022-08-18T02:21:18.881Z,15.60
2022-08-18T02:23:49.252Z,15.60
2022-08-18T02:26:23.570Z,15.70
2022-08-18T02:28:52.015Z,15.80
2022-08-18T02:31:22.582Z,15.80
2022-08-18T02:33:51.978Z,15.80
2022-08-18T02:36:25.065Z,15.70
2022-08-18T02:38:54.870Z,15.70
2022-08-18T02:41:29.208Z,15.60
2022-08-18T02:43:58.735Z,15.50
2022-08-18T02:46:30.183Z,15.50
2022-08-18T02:49:02.237Z,15.50
2022-08-18T02:51:30.381Z,15.50
2022-08-18T02:54:01.057Z,15.40
2022-08-18T02:56:32.960Z,15.50
2022-08-18T02:59:11.774Z,15.60
2022-08-18T03:01:43.531Z,15.60
2022-08-18T03:04:16.017Z,15.60
2022-08-18T03:06:45.378Z,15.50
2022-08-18T03:09:15.761Z,15.30
2022-08-18T03:11:44.355Z,15.40
2022-08-18T03:14:13.676Z,15.40
2022-08-18T03:16:52.944Z,15.40
2022-08-18T03:19:25.427Z,15.30
2022-08-18T03:21:53.318Z,15.30
2022-08-18T03:24:22.309Z,15.30
2022-08-18T03:26:51.014Z,15.30
2022-08-18T03:29:19.595Z,15.20
2022-08-18T03:31:48.961Z,15.10
2022-08-18T03:34:19.858Z,15.10
2022-08-18T03:36:50.530Z,15.20
2022-08-18T03:39:19.821Z,15.30
2022-08-18T03:41:58.431Z,15.40
2022-08-18T03:44:33.829Z,15.40
2022-08-18T03:47:03.868Z,15.50
2022-08-18T03:49:33.887Z,15.50
2022-08-18T03:52:03.037Z,15.50
2022-08-18T03:54:34.594Z,15.40
2022-08-18T03:57:02.560Z,15.30
2022-08-18T03:59:32.278Z,15.30
2022-08-18T04:02:03.460Z,15.30
2022-08-18T04:04:34.704Z,15.30
2022-08-18T04:07:10.853Z,15.40
2022-08-18T04:09:39.002Z,15.40
2022-08-18T04:12:15.410Z,15.40
2022-08-18T04:14:50.097Z,15.40
2022-08-18T04:17:24.451Z,15.30
2022-08-18T04:19:58.569Z,15.30
2022-08-18T04:22:26.757Z,15.30
2022-08-18T04:24:55.996Z,15.30
2022-08-18T04:27:25.981Z,15.40
2022-08-18T04:29:56.995Z,15.40
2022-08-18T04:32:30.756Z,15.40
2022-08-18T04:34:58.792Z,15.40
2022-08-18T04:37:32.552Z,15.30
2022-08-18T04:40:07.806Z,15.30
2022-08-18T04:42:35.670Z,15.30
2022-08-18T04:45:08.347Z,15.50
2022-08-18T04:47:39.265Z,15.50
2022-08-18T04:50:07.690Z,15.60
2022-08-18T04:52:54.020Z,15.60
2022-08-18T04:55:22.307Z,15.70
2022-08-18T04:57:50.032Z,15.70
2022-08-18T05:00:19.620Z,15.80
2022-08-18T05:02:47.358Z,15.80
2022-08-18T05:05:15.319Z,15.90
2022-08-18T05:07:47.191Z,15.80
2022-08-18T05:10:17.768Z,15.90
2022-08-18T05:12:47.859Z,15.90
2022-08-18T05:15:17.673Z,16.00
2022-08-18T05:17:45.611Z,16.00
2022-08-18T05:20:18.514Z,16.10
2022-08-18T05:22:47.234Z,16.10
2022-08-18T05:25:14.950Z,16.10
2022-08-18T05:27:44.124Z,16.20
2022-08-18T05:30:14.931Z,16.20
2022-08-18T05:32:49.095Z,16.30
2022-08-18T05:35:32.337Z,16.40
2022-08-18T05:38:09.302Z,16.60
2022-08-18T05:40:37.648Z,16.80
2022-08-18T05:43:06.996Z,17.00
2022-08-18T05:45:35.634Z,17.10
2022-08-18T05:48:03.596Z,17.10
2022-08-18T05:50:35.300Z,17.20
2022-08-18T05:53:13.183Z,17.20
2022-08-18T05:56:21.837Z,17.30
2022-08-18T05:58:52.994Z,17.30
2022-08-18T06:01:25.700Z,17.40
2022-08-18T06:04:01.190Z,17.40
2022-08-18T06:06:31.882Z,17.40
2022-08-18T06:09:08.385Z,17.40
2022-08-18T06:11:36.313Z,17.50
2022-08-18T06:14:04.762Z,17.50
2022-08-18T06:16:54.228Z,17.40
2022-08-18T06:19:46.801Z,17.40
2022-08-18T06:22:30.610Z,17.30
2022-08-18T06:25:33.211Z,17.10
2022-08-18T06:28:14.288Z,17.20
2022-08-18T06:30:57.598Z,17.20
2022-08-18T06:33:25.444Z,17.20
2022-08-18T06:36:00.742Z,17.10
2022-08-18T06:38:40.413Z,17.10
2022-08-18T06:41:41.887Z,17.10
2022-08-18T06:44:22.634Z,17.10
2022-08-18T06:47:32.634Z,17.00
2022-08-18T06:50:11.544Z,17.00
2022-08-18T06:52:59.245Z,17.00
2022-08-18T06:55:39.803Z,16.90
2022-08-18T06:58:30.493Z,16.90
2022-08-18T07:01:02.521Z,16.90
2022-08-18T07:03:39.577Z,16.90
2022-08-18T07:06:30.207Z,16.90
2022-08-18T07:09:20.626Z,16.80
2022-08-18T07:12:04.430Z,16.90
2022-08-18T07:14:43.085Z,17.00
2022-08-18T07:17:14.396Z,17.00
2022-08-18T07:19:42.662Z,17.10
2022-08-18T07:22:14.558Z,17.10
2022-08-18T07:24:51.066Z,17.20
2022-08-18T07:27:22.968Z,17.30
2022-08-18T07:30:15.571Z,17.50
2022-08-18T07:32:47.294Z,17.80
2022-08-18T07:35:32.549Z,17.90
2022-08-18T07:38:43.817Z,18.10
2022-08-18T07:41:24.221Z,18.30
2022-08-18T07:44:29.487Z,18.50
2022-08-18T07:47:04.933Z,18.50
2022-08-18T07:49:35.579Z,18.70
2022-08-18T07:52:44.270Z,18.80
2022-08-18T07:55:30.810Z,18.90
2022-08-18T07:58:20.575Z,19.10
2022-08-18T08:01:18.968Z,19.10
2022-08-18T08:04:08.105Z,19.00
2022-08-18T08:07:06.175Z,19.10
2022-08-18T08:09:43.000Z,19.30
2022-08-18T08:12:31.515Z,19.30
2022-08-18T08:15:26.601Z,19.30
2022-08-18T08:18:12.479Z,19.40
2022-08-18T08:20:56.192Z,19.50
2022-08-18T08:23:45.517Z,19.50
2022-08-18T08:26:28.248Z,19.50
2022-08-18T08:28:58.739Z,19.70
2022-08-18T08:31:49.068Z,19.80
2022-08-18T08:34:34.884Z,19.80
2022-08-18T08:37:04.642Z,20.00
2022-08-18T08:39:50.167Z,20.10
2022-08-18T08:42:34.590Z,20.20
2022-08-18T08:45:11.932Z,20.20
2022-08-18T08:48:08.439Z,20.30
2022-08-18T08:51:01.548Z,20.40
2022-08-18T08:54:05.469Z,20.60
2022-08-18T08:56:44.189Z,21.00
2022-08-18T08:59:14.990Z,21.20
2022-08-18T09:02:37.855Z,21.50
2022-08-18T09:05:14.701Z,21.60
2022-08-18T09:08:18.135Z,21.90
2022-08-18T09:11:07.638Z,21.90
2022-08-18T09:13:54.093Z,21.80
2022-08-18T09:16:40.081Z,21.90
2022-08-18T09:19:36.015Z,21.80
2022-08-18T09:22:22.444Z,22.00
2022-08-18T09:24:53.297Z,22.20
2022-08-18T09:27:24.120Z,22.20
2022-08-18T09:29:58.009Z,22.40
2022-08-18T09:32:26.251Z,22.60
2022-08-18T09:35:24.222Z,22.90
2022-08-18T09:38:15.512Z,22.90
2022-08-18T09:41:26.006Z,23.10
2022-08-18T09:44:12.037Z,23.30
2022-08-18T09:46:48.860Z,23.20
2022-08-18T09:49:22.851Z,23.30
2022-08-18T09:51:52.652Z,23.60
2022-08-18T09:54:26.774Z,23.60
2022-08-18T09:57:05.302Z,23.70
2022-08-18T10:02:28.424Z,24.00
2022-08-18T10:05:15.311Z,24.10
2022-08-18T10:07:50.760Z,24.30
2022-08-18T10:10:59.915Z,24.30
2022-08-18T10:13:48.935Z,24.30
2022-08-18T10:17:15.669Z,24.50
2022-08-18T10:19:48.192Z,24.80
2022-08-18T10:22:37.313Z,25.10
2022-08-18T10:25:22.310Z,25.20
2022-08-18T10:27:55.719Z,25.30
2022-08-18T10:30:34.509Z,25.40
2022-08-18T10:33:17.929Z,25.30
2022-08-18T10:35:59.417Z,25.20
2022-08-18T10:38:49.709Z,25.40
2022-08-18T10:41:27.257Z,25.70
2022-08-18T10:46:53.327Z,26.00
2022-08-18T10:49:31.866Z,26.20
2022-08-18T10:52:25.989Z,26.30
2022-08-18T10:55:10.230Z,26.40
2022-08-18T10:57:54.551Z,26.60
2022-08-18T11:00:27.842Z,26.50
2022-08-18T11:03:49.977Z,26.20
2022-08-18T11:06:06.982Z,26.00
2022-08-18T11:08:46.990Z,25.70
2022-08-18T11:14:16.602Z,25.10
2022-08-18T11:16:54.074Z,24.90
2022-08-18T11:19:23.264Z,24.70
2022-08-18T11:21:53.020Z,24.60
2022-08-18T11:24:27.916Z,24.20
2022-08-18T11:27:02.046Z,24.10
2022-08-18T11:29:34.772Z,23.80
2022-08-18T11:32:12.530Z,23.70
2022-08-18T11:34:52.833Z,23.60
2022-08-18T11:37:27.491Z,23.50
2022-08-18T11:39:59.438Z,23.50
2022-08-18T11:42:35.570Z,23.60
2022-08-18T11:45:17.673Z,23.80
2022-08-18T11:48:14.530Z,23.80
2022-08-18T11:50:55.489Z,23.90
2022-08-18T11:53:53.851Z,24.20
2022-08-18T11:56:31.373Z,24.50
2022-08-18T11:59:55.010Z,24.60
2022-08-18T12:02:26.032Z,24.60
2022-08-18T12:05:08.448Z,24.60
2022-08-18T12:07:57.177Z,24.60
2022-08-18T12:10:30.851Z,24.60
2022-08-18T12:15:47.892Z,24.90
2022-08-18T12:18:19.010Z,25.00
2022-08-18T12:20:59.167Z,25.10
2022-08-18T12:23:28.062Z,25.10
2022-08-18T12:26:27.043Z,25.00
2022-08-18T12:29:01.731Z,24.80
2022-08-18T12:31:45.766Z,24.50
2022-08-18T12:34:24.901Z,24.20
2022-08-18T12:36:58.083Z,23.90
2022-08-18T12:39:25.932Z,23.80
2022-08-18T12:41:54.404Z,23.60
2022-08-18T12:44:22.187Z,23.50
2022-08-18T12:46:50.622Z,23.20
2022-08-18T12:49:21.815Z,23.10
2022-08-18T12:51:51.076Z,22.90
2022-08-18T12:54:20.189Z,22.80
2022-08-18T12:56:54.209Z,22.30
2022-08-18T13:21:54.716Z,19.70
2022-08-18T13:24:25.190Z,18.90
2022-08-18T13:26:56.408Z,18.90
2022-08-18T13:29:24.786Z,18.90
2022-08-18T13:31:57.796Z,18.80
2022-08-18T13:34:29.817Z,18.80
2022-08-18T13:36:58.184Z,18.90
2022-08-18T13:39:34.225Z,18.80
2022-08-18T13:42:26.482Z,18.70
2022-08-18T13:44:53.496Z,18.70
2022-08-18T13:47:23.447Z,18.70
2022-08-18T13:49:57.951Z,18.80
2022-08-18T13:52:41.157Z,19.00
2022-08-18T13:55:17.491Z,18.90
2022-08-18T13:57:50.051Z,19.10
2022-08-18T14:00:30.379Z,19.10
2022-08-18T14:03:03.070Z,19.00
2022-08-18T14:05:36.520Z,19.10
2022-08-18T14:08:19.833Z,19.20
2022-08-18T14:10:53.999Z,19.40
2022-08-18T14:13:24.541Z,19.30
2022-08-18T14:15:56.138Z,19.40
2022-08-18T14:18:28.855Z,19.60
2022-08-18T14:21:23.170Z,19.50
2022-08-18T14:24:14.198Z,19.70
2022-08-18T14:26:50.379Z,19.70
2022-08-18T14:29:46.698Z,19.60
2022-08-18T14:32:07.443Z,19.70
2022-08-18T14:34:37.317Z,19.80
2022-08-18T14:37:05.018Z,19.80
2022-08-18T14:39:37.779Z,19.60
2022-08-18T14:42:06.043Z,19.50
2022-08-18T14:44:36.107Z,19.30
2022-08-18T14:47:03.845Z,19.50
2022-08-18T14:49:32.322Z,19.50
2022-08-18T14:52:19.279Z,19.10
2022-08-18T14:54:51.073Z,19.20
2022-08-18T14:59:58.070Z,19.20
2022-08-18T15:02:27.347Z,19.20
2022-08-18T15:04:57.796Z,19.10
2022-08-18T15:07:28.861Z,19.10
2022-08-18T15:10:15.004Z,18.80
2022-08-18T15:12:44.955Z,19.00
2022-08-18T15:15:16.784Z,18.80
2022-08-18T15:17:52.447Z,18.90
2022-08-18T15:20:29.654Z,19.00
2022-08-18T15:23:28.244Z,19.10
2022-08-18T15:25:59.701Z,19.00
2022-08-18T15:28:28.242Z,19.00
2022-08-18T15:33:44.209Z,19.00
2022-08-18T15:36:28.834Z,18.90
2022-08-18T15:39:00.926Z,18.80
2022-08-18T15:41:44.354Z,19.00
2022-08-18T15:44:14.815Z,19.00
2022-08-18T15:46:43.233Z,19.10
2022-08-18T15:49:19.475Z,19.00
2022-08-18T15:51:49.629Z,19.20
2022-08-18T15:54:19.572Z,19.10
2022-08-18T15:56:57.914Z,19.20
2022-08-18T15:59:34.065Z,19.30
2022-08-18T16:02:11.434Z,19.30
2022-08-18T16:04:41.391Z,19.30
2022-08-18T16:07:15.486Z,19.20
2022-08-18T16:09:45.912Z,19.20
2022-08-18T16:12:14.212Z,19.30
2022-08-18T16:14:42.051Z,19.30
2022-08-18T16:17:18.364Z,19.10
2022-08-18T16:19:51.625Z,19.00
2022-08-18T16:22:19.661Z,19.10
2022-08-18T16:24:55.000Z,19.00
2022-08-18T16:27:23.224Z,19.00
2022-08-18T16:29:51.197Z,19.00
2022-08-18T16:32:19.185Z,19.00
2022-08-18T16:34:46.961Z,19.00
2022-08-18T16:39:47.558Z,19.00
2022-08-18T16:42:22.760Z,19.10
2022-08-18T16:44:50.623Z,19.10
2022-08-18T16:47:18.773Z,19.10
2022-08-18T16:49:48.858Z,19.10
2022-08-18T16:52:18.781Z,19.00
2022-08-18T16:54:47.860Z,19.00
2022-08-18T16:57:53.804Z,18.90
2022-08-18T17:00:43.955Z,18.70
2022-08-18T17:03:33.194Z,18.60
2022-08-18T17:06:07.435Z,18.40
2022-08-18T17:08:35.473Z,18.30
2022-08-18T17:11:05.722Z,18.30
2022-08-18T17:13:34.580Z,18.10
2022-08-18T17:16:02.445Z,18.10
2022-08-18T17:18:30.605Z,18.10
2022-08-18T17:21:10.404Z,18.00
2022-08-18T17:23:42.078Z,18.00
2022-08-18T17:26:27.389Z,17.90
2022-08-18T17:29:05.828Z,17.90
2022-08-18T17:31:37.638Z,17.90
2022-08-18T17:34:13.645Z,17.90
2022-08-18T17:36:56.868Z,18.00
2022-08-18T17:39:37.945Z,17.80
2022-08-18T17:42:25.119Z,17.80
2022-08-18T17:44:59.445Z,17.70
2022-08-18T17:47:56.504Z,17.90
2022-08-18T17:50:53.238Z,17.90
2022-08-18T17:53:22.468Z,17.90
2022-08-18T17:56:00.118Z,17.80
2022-08-18T17:58:56.633Z,17.70
2022-08-18T18:01:26.019Z,17.80
2022-08-18T18:03:54.008Z,17.90
2022-08-18T18:06:42.221Z,17.90
2022-08-18T18:09:21.081Z,17.80
2022-08-18T18:11:48.943Z,17.80
2022-08-18T18:14:28.118Z,17.80
2022-08-18T18:17:15.487Z,17.60
2022-08-18T18:19:48.385Z,17.60
2022-08-18T18:22:21.137Z,17.70
2022-08-18T18:24:57.863Z,17.60
2022-08-18T18:27:33.593Z,17.60
2022-08-18T18:30:07.613Z,17.60
2022-08-18T18:32:59.310Z,17.60
2022-08-18T18:35:31.393Z,17.50
2022-08-18T18:38:22.706Z,17.40
2022-08-18T18:40:56.708Z,17.50
2022-08-18T18:43:31.218Z,17.50
2022-08-18T18:46:08.105Z,17.20
2022-08-18T18:49:05.992Z,17.20
2022-08-18T18:51:57.542Z,17.30
2022-08-18T18:54:59.872Z,17.20
2022-08-18T18:57:41.475Z,17.30
2022-08-18T19:00:18.366Z,17.20
2022-08-18T19:03:03.621Z,17.20
2022-08-18T19:05:53.408Z,17.20
2022-08-18T19:09:10.184Z,17.20
2022-08-18T19:11:49.961Z,17.10
2022-08-18T19:14:23.053Z,17.10
2022-08-18T19:17:17.742Z,17.00
2022-08-18T19:19:59.106Z,17.10
2022-08-18T19:22:41.920Z,17.10
2022-08-18T19:25:48.043Z,17.10
2022-08-18T19:29:12.239Z,17.10
2022-08-18T19:31:54.761Z,16.90
2022-08-18T19:34:32.120Z,16.90
2022-08-18T19:37:27.527Z,16.90
2022-08-18T19:40:09.510Z,16.90
2022-08-18T19:42:43.902Z,16.90
2022-08-18T19:45:21.182Z,16.80
2022-08-18T19:48:01.289Z,16.80
2022-08-18T19:50:43.220Z,16.90
2022-08-18T19:53:14.669Z,16.90
2022-08-18T19:55:54.801Z,16.80
2022-08-18T19:59:04.697Z,16.80
2022-08-18T20:01:44.062Z,16.90
2022-08-18T20:04:23.842Z,16.90
2022-08-18T20:07:01.557Z,16.90
2022-08-18T20:10:08.043Z,16.90
2022-08-18T20:13:10.215Z,16.80
2022-08-18T20:15:59.894Z,16.80
2022-08-18T20:18:51.930Z,16.70
2022-08-18T20:21:22.390Z,16.70
2022-08-18T20:23:59.045Z,16.80
2022-08-18T20:26:39.478Z,16.80
2022-08-18T20:29:11.149Z,16.70
2022-08-18T20:32:00.963Z,16.60
2022-08-18T20:34:35.048Z,16.70
2022-08-18T20:37:08.335Z,16.70
2022-08-18T20:39:54.730Z,16.80
2022-08-18T20:42:26.991Z,16.70
2022-08-18T20:45:07.096Z,16.80
2022-08-18T20:47:53.806Z,16.90
2022-08-18T20:50:46.303Z,16.90
2022-08-18T20:53:27.264Z,17.00
2022-08-18T20:56:43.831Z,16.90
2022-08-18T20:59:20.490Z,17.00
2022-08-18T21:02:07.762Z,17.10
2022-08-18T21:04:50.067Z,17.10
2022-08-18T21:07:37.070Z,17.00
2022-08-18T21:10:20.025Z,17.10
2022-08-18T21:12:55.962Z,17.30
2022-08-18T21:15:35.663Z,17.30
2022-08-18T21:18:07.258Z,17.40
2022-08-18T21:20:35.512Z,17.40
2022-08-18T21:23:10.815Z,17.40
2022-08-18T21:25:53.436Z,17.50
2022-08-18T21:28:22.917Z,17.60
2022-08-18T21:31:41.614Z,17.60
2022-08-18T21:33:59.668Z,17.70
2022-08-18T21:36:32.251Z,17.70
2022-08-18T21:39:07.813Z,17.80
2022-08-18T21:42:02.378Z,17.90
2022-08-18T21:44:42.047Z,18.00
2022-08-18T21:47:26.628Z,18.10
2022-08-18T21:50:08.412Z,18.10
2022-08-18T21:52:39.173Z,18.00
2022-08-18T21:55:19.504Z,18.00
2022-08-18T21:57:51.963Z,18.10
2022-08-18T22:00:29.724Z,18.20
2022-08-18T22:03:22.144Z,18.30
2022-08-18T22:06:27.289Z,18.20
2022-08-18T22:08:59.365Z,18.30
2022-08-18T22:12:00.645Z,18.40
2022-08-18T22:14:53.795Z,18.30
2022-08-18T22:17:43.330Z,18.20
2022-08-18T22:20:48.335Z,18.30
2022-08-18T22:23:34.423Z,18.30
2022-08-18T22:26:17.203Z,18.20
2022-08-18T22:29:06.793Z,18.30
2022-08-18T22:31:38.989Z,18.30
2022-08-18T22:34:16.579Z,18.40
2022-08-18T22:36:52.751Z,18.40
2022-08-18T22:39:46.910Z,18.50
2022-08-18T22:42:17.112Z,18.40
2022-08-18T22:44:45.068Z,18.40
2022-08-18T22:47:13.135Z,18.50
2022-08-18T22:49:42.422Z,18.50
2022-08-18T22:52:37.991Z,18.60
2022-08-18T22:55:09.069Z,18.60
2022-08-18T22:57:39.785Z,18.50
2022-08-18T23:00:15.284Z,18.60
2022-08-18T23:02:47.953Z,18.60
2022-08-18T23:05:15.843Z,18.60
2022-08-18T23:21:52.366Z,18.60
2022-08-18T23:24:21.847Z,18.60
2022-08-18T23:26:50.048Z,18.40
2022-08-18T23:29:19.980Z,18.30
2022-08-18T23:31:51.732Z,18.30
2022-08-18T23:34:23.134Z,18.20
2022-08-18T23:36:56.743Z,18.00
2022-08-18T23:39:26.391Z,18.00
2022-08-18T23:41:55.209Z,18.00
2022-08-18T23:44:27.803Z,18.00
2022-08-18T23:46:59.121Z,18.00
2022-08-18T23:49:28.763Z,18.00
2022-08-18T23:51:57.979Z,18.00
2022-08-18T23:54:32.297Z,17.90
2022-08-18T23:57:00.783Z,17.80
2022-08-18T23:59:30.259Z,17.80
